createdAt,value
2018-06-22T00:00:58.550Z,98961.25
2018-06-22T00:03:27.294Z,98957.30
2018-06-22T00:05:55.974Z,98961.12
2018-06-22T00:08:24.836Z,98958.29
2018-06-22T00:10:53.549Z,98967.76
2018-06-22T00:13:22.234Z,98972.25
2018-06-22T00:15:51.010Z,98978.53
2018-06-22T00:18:19.736Z,98977.85
2018-06-22T00:20:48.588Z,98979.64
2018-06-22T00:23:17.322Z,98979.77
2018-06-22T00:25:46.053Z,98976.34
2018-06-22T00:28:14.722Z,98979.48
2018-06-22T00:30:43.488Z,98981.56
2018-06-22T00:33:12.251Z,98986.87
2018-06-22T00:35:40.947Z,98984.37
2018-06-22T00:38:09.602Z,98989.17
2018-06-22T00:40:38.482Z,98995.72
2018-06-22T00:43:07.176Z,99000.41
2018-06-22T00:45:35.921Z,98994.11
2018-06-22T00:48:04.560Z,98991.34
2018-06-22T00:50:33.228Z,98987.27
2018-06-22T00:53:01.989Z,98987.66
2018-06-22T00:55:30.835Z,98983.05
2018-06-22T00:57:59.541Z,98987.41
2018-06-22T01:00:28.402Z,98983.23
2018-06-22T01:02:57.268Z,98984.44
2018-06-22T01:05:26.038Z,98990.23
2018-06-22T01:07:54.830Z,98997.84
2018-06-22T01:10:23.517Z,98997.70
2018-06-22T01:12:52.301Z,98997.18
2018-06-22T01:15:21.232Z,98997.95
2018-06-22T01:17:50.132Z,98999.13
2018-06-22T01:20:18.925Z,98996.27
2018-06-22T01:22:47.739Z,99005.66
2018-06-22T01:25:16.528Z,99005.63
2018-06-22T01:27:45.312Z,99010.65
2018-06-22T01:30:14.183Z,99008.95
2018-06-22T01:32:43.045Z,99011.67
2018-06-22T01:35:11.911Z,99014.20
2018-06-22T01:37:40.811Z,99021.86
2018-06-22T01:40:09.546Z,99014.47
2018-06-22T01:42:38.418Z,99025.20
2018-06-22T01:45:07.139Z,99021.19
2018-06-22T01:47:36.029Z,99023.37
2018-06-22T01:50:04.878Z,99027.66
2018-06-22T01:52:33.710Z,99020.36
2018-06-22T01:55:02.416Z,99024.64
2018-06-22T01:57:31.179Z,99022.05
2018-06-22T01:59:59.969Z,99032.27
2018-06-22T02:02:28.790Z,99033.09
2018-06-22T02:04:57.524Z,99031.08
2018-06-22T02:07:26.275Z,99028.35
2018-06-22T02:09:54.926Z,99028.11
2018-06-22T02:12:23.649Z,99029.11
2018-06-22T02:14:52.358Z,99032.58
2018-06-22T02:17:21.262Z,99036.52
2018-06-22T02:19:50.023Z,99036.48
2018-06-22T02:22:18.724Z,99039.67
2018-06-22T02:24:47.420Z,99047.08
2018-06-22T02:27:16.169Z,99042.47
2018-06-22T02:29:45.030Z,99040.61
2018-06-22T02:32:13.962Z,99044.30
2018-06-22T02:34:42.734Z,99044.45
2018-06-22T02:37:11.475Z,99041.59
2018-06-22T02:39:40.363Z,99040.89
2018-06-22T02:42:09.319Z,99038.94
2018-06-22T02:44:38.285Z,99037.42
2018-06-22T02:47:06.993Z,99049.59
2018-06-22T02:49:35.789Z,99049.52
2018-06-22T02:52:04.629Z,99055.86
2018-06-22T02:54:33.329Z,99053.23
2018-06-22T02:57:02.114Z,99055.22
2018-06-22T02:59:30.861Z,99046.19
2018-06-22T03:01:59.791Z,99051.62
2018-06-22T03:04:28.642Z,99048.49
2018-06-22T03:06:57.397Z,99054.09
2018-06-22T03:09:28.005Z,99048.59
2018-06-22T03:11:56.891Z,99056.34
2018-06-22T03:14:25.910Z,99058.75
2018-06-22T03:16:54.604Z,99062.08
2018-06-22T03:19:23.481Z,99062.08
2018-06-22T03:21:52.242Z,99064.88
2018-06-22T03:24:21.217Z,99063.23
2018-06-22T03:26:49.848Z,99053.20
2018-06-22T03:29:18.491Z,99057.53
2018-06-22T03:31:47.144Z,99059.56
2018-06-22T03:34:15.953Z,99061.47
2018-06-22T03:36:44.641Z,99065.05
2018-06-22T03:39:13.367Z,99058.66
2018-06-22T03:41:42.137Z,99059.22
2018-06-22T03:44:10.803Z,99061.67
2018-06-22T03:46:39.795Z,99061.54
2018-06-22T03:49:08.474Z,99056.48
2018-06-22T03:51:37.316Z,99062.89
2018-06-22T03:54:06.434Z,99066.54
2018-06-22T03:56:35.216Z,99059.86
2018-06-22T03:59:03.876Z,99061.44
2018-06-22T04:01:32.724Z,99063.72
2018-06-22T04:04:02.121Z,99074.03
2018-06-22T04:06:30.805Z,99070.00
2018-06-22T04:08:59.561Z,99074.56
2018-06-22T04:11:28.399Z,99069.84
2018-06-22T04:13:57.126Z,99070.83
2018-06-22T04:16:25.854Z,99069.19
2018-06-22T04:18:54.694Z,99076.47
2018-06-22T04:21:23.473Z,99068.96
2018-06-22T04:23:52.357Z,99074.98
2018-06-22T04:26:21.090Z,99070.42
2018-06-22T04:28:49.965Z,99078.25
2018-06-22T04:31:19.505Z,99084.09
2018-06-22T04:33:48.178Z,99093.19
2018-06-22T04:36:16.795Z,99088.95
2018-06-22T04:38:55.480Z,99087.12
2018-06-22T04:41:24.509Z,99086.66
2018-06-22T04:43:53.199Z,99086.88
2018-06-22T04:46:21.916Z,99087.73
2018-06-22T04:48:50.769Z,99088.63
2018-06-22T04:51:19.945Z,99090.62
2018-06-22T04:53:48.682Z,99095.59
2018-06-22T04:56:17.446Z,99101.80
2018-06-22T04:58:46.224Z,99093.37
2018-06-22T05:01:15.139Z,99095.48
2018-06-22T05:03:44.011Z,99085.64
2018-06-22T05:06:12.760Z,99096.20
2018-06-22T05:08:41.561Z,99092.73
2018-06-22T05:11:10.314Z,99088.60
2018-06-22T05:13:39.378Z,99094.83
2018-06-22T05:16:08.256Z,99088.69
2018-06-22T05:18:37.216Z,99087.77
2018-06-22T05:21:06.480Z,99090.50
2018-06-22T05:23:35.379Z,99102.86
2018-06-22T05:26:04.314Z,99098.83
2018-06-22T05:28:33.280Z,99097.09
2018-06-22T05:31:02.062Z,99094.13
2018-06-22T05:33:30.962Z,99092.60
2018-06-22T05:35:59.858Z,99086.78
2018-06-22T05:38:28.691Z,99082.55
2018-06-22T05:40:57.428Z,99086.72
2018-06-22T05:43:26.211Z,99082.16
2018-06-22T05:45:55.232Z,99074.52
2018-06-22T05:48:24.216Z,99088.47
2018-06-22T05:50:53.108Z,99084.27
2018-06-22T05:53:21.955Z,99086.64
2018-06-22T05:55:50.914Z,99084.80
2018-06-22T05:58:19.793Z,99085.48
2018-06-22T06:00:48.645Z,99095.68
2018-06-22T06:03:17.452Z,99095.30
2018-06-22T06:05:46.220Z,99086.19
2018-06-22T06:08:15.284Z,99091.98
2018-06-22T06:10:44.045Z,99084.49
2018-06-22T06:13:12.879Z,99076.94
2018-06-22T06:15:41.759Z,99081.64
2018-06-22T06:18:10.417Z,99076.53
2018-06-22T06:20:39.592Z,99073.09
2018-06-22T06:23:08.305Z,99079.26
2018-06-22T06:25:37.208Z,99073.74
2018-06-22T06:28:06.055Z,99077.19
2018-06-22T06:30:35.067Z,99082.80
2018-06-22T06:33:03.957Z,99088.33
2018-06-22T06:35:32.972Z,99086.61
2018-06-22T06:38:01.655Z,99086.09
2018-06-22T06:40:30.518Z,99086.20
2018-06-22T06:42:59.237Z,99089.06
2018-06-22T06:45:28.550Z,99086.63
2018-06-22T06:47:57.244Z,99088.13
2018-06-22T06:50:26.133Z,99092.42
2018-06-22T06:52:54.962Z,99091.72
2018-06-22T06:55:23.699Z,99097.03
2018-06-22T06:57:52.555Z,99096.28
2018-06-22T07:00:21.213Z,99092.65
2018-06-22T07:02:50.235Z,99104.20
2018-06-22T07:05:18.920Z,99098.53
2018-06-22T07:07:47.675Z,99106.47
2018-06-22T07:10:16.354Z,99091.88
2018-06-22T07:12:45.220Z,99090.69
2018-06-22T07:15:14.212Z,99082.59
2018-06-22T07:17:43.007Z,99090.40
2018-06-22T07:20:11.728Z,99093.69
2018-06-22T07:22:40.469Z,99105.58
2018-06-22T07:25:09.306Z,99105.92
2018-06-22T07:27:38.276Z,99104.05
2018-06-22T07:30:07.086Z,99113.19
2018-06-22T07:32:35.931Z,99102.02
2018-06-22T07:35:04.693Z,99117.70
2018-06-22T07:37:33.458Z,99122.52
2018-06-22T07:40:02.186Z,99123.40
2018-06-22T07:42:30.939Z,99118.02
2018-06-22T07:44:59.600Z,99123.66
2018-06-22T07:47:28.639Z,99119.66
2018-06-22T07:49:57.361Z,99118.94
2018-06-22T07:52:26.259Z,99116.83
2018-06-22T07:54:55.094Z,99127.35
2018-06-22T07:57:23.930Z,99114.12
2018-06-22T07:59:52.639Z,99110.22
2018-06-22T08:02:22.068Z,99119.20
2018-06-22T08:04:50.877Z,99121.06
2018-06-22T08:07:19.752Z,99120.27
2018-06-22T08:09:48.808Z,99116.97
2018-06-22T08:12:17.561Z,99126.70
2018-06-22T08:14:46.353Z,99107.07
2018-06-22T08:17:15.299Z,99106.19
2018-06-22T08:19:44.071Z,99115.75
2018-06-22T08:22:12.813Z,99110.05
2018-06-22T08:24:41.602Z,99102.69
2018-06-22T08:27:10.432Z,99098.86
2018-06-22T08:29:39.376Z,99094.23
2018-06-22T08:32:08.168Z,99093.54
2018-06-22T08:34:37.073Z,99097.48
2018-06-22T08:37:05.860Z,99110.75
2018-06-22T08:39:34.561Z,99103.84
2018-06-22T08:42:03.242Z,99109.42
2018-06-22T08:44:31.978Z,99117.21
2018-06-22T08:47:00.684Z,99120.08
2018-06-22T08:49:29.781Z,99122.38
2018-06-22T08:51:59.875Z,99123.58
2018-06-22T08:54:31.452Z,99121.09
2018-06-22T08:57:00.181Z,99114.59
2018-06-22T08:59:29.002Z,99122.11
2018-06-22T09:01:59.675Z,99125.47
2018-06-22T09:04:28.974Z,99136.13
2018-06-22T09:06:57.847Z,99130.53
2018-06-22T09:09:26.846Z,99130.73
2018-06-22T09:11:55.764Z,99119.59
2018-06-22T09:14:24.939Z,99123.05
2018-06-22T09:16:53.775Z,99117.88
2018-06-22T09:19:22.519Z,99117.45
2018-06-22T09:21:51.352Z,99115.57
2018-06-22T09:24:20.144Z,99122.69
2018-06-22T09:26:48.936Z,99137.16
2018-06-22T09:29:17.677Z,99124.47
2018-06-22T09:31:46.454Z,99124.16
2018-06-22T09:34:15.242Z,99121.25
2018-06-22T09:36:43.997Z,99119.36
2018-06-22T09:39:13.326Z,99114.80
2018-06-22T09:41:42.197Z,99106.50
2018-06-22T09:44:20.790Z,99100.02
2018-06-22T09:46:49.627Z,99103.40
2018-06-22T09:49:18.635Z,99100.25
2018-06-22T09:51:47.513Z,99092.90
2018-06-22T09:54:16.231Z,99082.10
2018-06-22T09:56:45.070Z,99089.29
2018-06-22T09:59:13.893Z,99081.19
2018-06-22T10:01:44.111Z,99090.44
2018-06-22T10:04:25.552Z,99094.95
2018-06-22T10:06:54.273Z,99101.48
2018-06-22T10:09:23.106Z,99102.92
2018-06-22T10:11:51.954Z,99105.97
2018-06-22T10:14:21.178Z,99112.33
2018-06-22T10:16:50.141Z,99117.61
2018-06-22T10:19:18.973Z,99108.66
2018-06-22T10:21:47.679Z,99109.06
2018-06-22T10:24:16.729Z,99110.91
2018-06-22T10:26:45.565Z,99106.48
2018-06-22T10:29:14.515Z,99108.67
2018-06-22T10:31:43.495Z,99120.71
2018-06-22T10:34:12.280Z,99127.02
2018-06-22T10:36:41.606Z,99121.32
2018-06-22T10:39:12.558Z,99113.62
2018-06-22T10:41:41.465Z,99121.95
2018-06-22T10:44:11.048Z,99125.00
2018-06-22T10:46:40.729Z,99113.00
2018-06-22T10:49:09.708Z,99116.72
2018-06-22T10:51:38.847Z,99113.53
2018-06-22T10:54:07.944Z,99113.45
2018-06-22T10:56:36.972Z,99110.39
2018-06-22T10:59:06.419Z,99110.78
2018-06-22T11:01:35.517Z,99115.50
2018-06-22T11:04:04.510Z,99115.10
2018-06-22T11:06:33.804Z,99126.27
2018-06-22T11:09:02.855Z,99116.42
2018-06-22T11:11:31.927Z,99115.16
2018-06-22T11:14:00.991Z,99110.39
2018-06-22T11:16:30.019Z,99114.79
2018-06-22T11:19:00.933Z,99115.36
2018-06-22T11:21:29.843Z,99109.70
2018-06-22T11:24:06.229Z,99098.70
2018-06-22T11:26:35.260Z,99104.81
2018-06-22T11:29:06.350Z,99108.25
2018-06-22T11:31:35.653Z,99101.91
2018-06-22T11:34:06.114Z,99103.59
2018-06-22T11:36:35.823Z,99111.57
2018-06-22T11:39:07.729Z,99107.70
2018-06-22T11:41:36.619Z,99108.73
2018-06-22T11:44:05.571Z,99105.38
2018-06-22T11:46:34.521Z,99107.42
2018-06-22T11:49:03.830Z,99110.73
2018-06-22T11:51:44.659Z,99108.44
2018-06-22T11:54:14.394Z,99106.80
2018-06-22T11:56:43.711Z,99104.30
2018-06-22T11:59:27.627Z,99114.12
2018-06-22T12:02:08.904Z,99113.38
2018-06-22T12:04:42.137Z,99109.78
2018-06-22T12:07:14.405Z,99111.45
2018-06-22T12:09:45.605Z,99113.83
2018-06-22T12:12:21.329Z,99117.17
2018-06-22T12:14:50.292Z,99113.75
2018-06-22T12:17:19.197Z,99113.18
2018-06-22T12:19:48.089Z,99112.49
2018-06-22T12:22:17.196Z,99114.05
2018-06-22T12:24:46.489Z,99116.02
2018-06-22T12:27:15.948Z,99112.05
2018-06-22T12:29:44.913Z,99099.91
2018-06-22T12:32:13.893Z,99103.05
2018-06-22T12:34:43.000Z,99101.70
2018-06-22T12:37:12.565Z,99105.43
2018-06-22T12:39:41.539Z,99102.41
2018-06-22T12:42:10.582Z,99099.36
2018-06-22T12:44:39.749Z,99101.41
2018-06-22T12:47:08.946Z,99109.06
2018-06-22T12:49:37.636Z,99107.53
2018-06-22T12:52:06.600Z,99105.06
2018-06-22T12:54:35.470Z,99107.78
2018-06-22T12:57:04.310Z,99108.64
2018-06-22T12:59:33.529Z,99102.88
2018-06-22T13:02:08.393Z,99099.77
2018-06-22T13:04:39.631Z,99098.23
2018-06-22T13:07:08.937Z,99097.19
2018-06-22T13:09:37.764Z,99102.48
2018-06-22T13:12:06.667Z,99112.16
2018-06-22T13:14:35.946Z,99110.00
2018-06-22T13:17:05.377Z,99108.21
2018-06-22T13:19:35.134Z,99116.59
2018-06-22T13:22:04.805Z,99107.09
2018-06-22T13:24:33.706Z,99109.87
2018-06-22T13:27:02.707Z,99109.55
2018-06-22T13:29:31.735Z,99101.22
2018-06-22T13:32:00.570Z,99104.22
2018-06-22T13:34:29.501Z,99096.59
2018-06-22T13:36:58.659Z,99089.30
2018-06-22T13:39:28.002Z,99088.64
2018-06-22T13:41:56.819Z,99095.05
2018-06-22T13:44:26.280Z,99106.45
2018-06-22T13:46:55.521Z,99096.84
2018-06-22T13:49:27.040Z,99107.72
2018-06-22T13:51:55.858Z,99103.30
2018-06-22T13:54:25.640Z,99101.28
2018-06-22T13:56:55.052Z,99099.38
2018-06-22T13:59:23.832Z,99093.41
2018-06-22T14:01:52.729Z,99102.89
2018-06-22T14:04:26.758Z,99108.00
2018-06-22T14:06:56.891Z,99107.47
2018-06-22T14:09:25.933Z,99106.20
2018-06-22T14:11:54.887Z,99114.08
2018-06-22T14:14:24.079Z,99108.21
2018-06-22T14:16:52.829Z,99111.91
2018-06-22T14:19:21.652Z,99107.06
2018-06-22T14:21:50.739Z,99107.11
2018-06-22T14:24:19.745Z,99103.09
2018-06-22T14:26:48.579Z,99108.77
2018-06-22T14:29:17.447Z,99108.05
2018-06-22T14:31:46.452Z,99116.74
2018-06-22T14:34:15.216Z,99111.63
2018-06-22T14:36:44.355Z,99107.57
2018-06-22T14:39:13.164Z,99108.58
2018-06-22T14:41:44.909Z,99106.80
2018-06-22T14:44:13.853Z,99103.70
2018-06-22T14:46:42.812Z,99099.14
2018-06-22T14:49:13.502Z,99100.28
2018-06-22T14:51:42.682Z,99102.44
2018-06-22T14:54:16.697Z,99106.08
2018-06-22T14:56:50.877Z,99102.22
2018-06-22T14:59:24.978Z,99091.14
2018-06-22T15:01:59.090Z,99094.53
2018-06-22T15:04:32.881Z,99099.27
2018-06-22T15:07:10.698Z,99096.48
2018-06-22T15:09:39.821Z,99097.93
2018-06-22T15:12:09.481Z,99093.69
2018-06-22T15:14:38.277Z,99085.28
2018-06-22T15:17:11.370Z,99090.91
2018-06-22T15:19:41.155Z,99096.99
2018-06-22T15:22:11.337Z,99094.73
2018-06-22T15:24:40.421Z,99100.59
2018-06-22T15:27:10.235Z,99097.28
2018-06-22T15:29:39.271Z,99107.77
2018-06-22T15:32:09.239Z,99106.02
2018-06-22T15:34:44.444Z,99105.08
2018-06-22T15:37:19.833Z,99106.89
2018-06-22T15:39:54.114Z,99101.98
2018-06-22T15:42:28.180Z,99090.90
2018-06-22T15:45:02.442Z,99103.91
2018-06-22T15:47:36.296Z,99097.78
2018-06-22T15:50:10.636Z,99098.05
2018-06-22T15:52:44.637Z,99108.00
2018-06-22T15:55:17.350Z,99110.32
2018-06-22T15:57:46.413Z,99113.98
2018-06-22T16:00:15.442Z,99097.16
2018-06-22T16:02:50.102Z,99097.45
2018-06-22T16:05:18.807Z,99099.78
2018-06-22T16:07:47.779Z,99102.63
2018-06-22T16:10:17.643Z,99102.97
2018-06-22T16:12:46.498Z,99102.25
2018-06-22T16:15:20.728Z,99103.12
2018-06-22T16:17:55.145Z,99107.48
2018-06-22T16:20:29.305Z,99110.70
2018-06-22T16:23:03.610Z,99107.66
2018-06-22T16:25:37.937Z,99117.73
2018-06-22T16:28:08.094Z,99107.69
2018-06-22T16:30:37.486Z,99111.03
2018-06-22T16:33:06.461Z,99112.33
2018-06-22T16:35:35.553Z,99115.27
2018-06-22T16:38:04.731Z,99113.67
2018-06-22T16:40:34.145Z,99116.69
2018-06-22T16:43:05.193Z,99112.30
2018-06-22T16:45:34.148Z,99107.13
2018-06-22T16:48:03.400Z,99120.48
2018-06-22T16:50:32.767Z,99116.09
2018-06-22T16:53:03.231Z,99116.73
2018-06-22T16:55:32.322Z,99108.38
2018-06-22T16:58:02.424Z,99114.12
2018-06-22T17:00:32.028Z,99109.17
2018-06-22T17:03:02.066Z,99113.98
2018-06-22T17:05:32.131Z,99108.77
2018-06-22T17:08:07.737Z,99114.23
2018-06-22T17:10:42.132Z,99119.09
2018-06-22T17:13:16.714Z,99116.61
2018-06-22T17:15:51.100Z,99120.04
2018-06-22T17:18:25.373Z,99122.52
2018-06-22T17:20:54.805Z,99125.92
2018-06-22T17:23:24.413Z,99120.25
2018-06-22T17:25:53.553Z,99120.95
2018-06-22T17:28:22.495Z,99124.20
2018-06-22T17:30:51.971Z,99122.23
2018-06-22T17:33:21.254Z,99124.81
2018-06-22T17:35:50.423Z,99131.16
2018-06-22T17:38:19.390Z,99124.47
2018-06-22T17:40:48.540Z,99131.42
2018-06-22T17:43:17.540Z,99133.78
2018-06-22T17:45:46.565Z,99129.77
2018-06-22T17:48:15.581Z,99126.58
2018-06-22T17:50:44.637Z,99126.50
2018-06-22T17:53:13.688Z,99126.09
2018-06-22T17:55:42.457Z,99126.30
2018-06-22T17:58:11.264Z,99120.53
2018-06-22T18:00:45.425Z,99135.89
2018-06-22T18:03:19.354Z,99128.14
2018-06-22T18:05:53.663Z,99126.39
2018-06-22T18:08:27.986Z,99124.18
2018-06-22T18:11:01.880Z,99134.57
2018-06-22T18:13:30.828Z,99135.52
2018-06-22T18:15:59.680Z,99131.13
2018-06-22T18:18:28.552Z,99145.57
2018-06-22T18:20:57.421Z,99139.59
2018-06-22T18:23:26.433Z,99137.92
2018-06-22T18:25:55.289Z,99139.52
2018-06-22T18:28:24.217Z,99141.36
2018-06-22T18:30:53.248Z,99135.80
2018-06-22T18:33:23.003Z,99141.55
2018-06-22T18:35:51.912Z,99140.30
2018-06-22T18:38:20.844Z,99143.17
2018-06-22T18:40:49.613Z,99150.78
2018-06-22T18:43:25.480Z,99151.44
2018-06-22T18:45:54.337Z,99151.94
2018-06-22T18:48:23.105Z,99152.73
2018-06-22T18:50:52.201Z,99149.61
2018-06-22T18:53:26.202Z,99151.67
2018-06-22T18:56:00.275Z,99156.81
2018-06-22T18:58:34.198Z,99159.52
2018-06-22T19:01:08.133Z,99161.16
2018-06-22T19:03:42.334Z,99157.82
2018-06-22T19:06:11.425Z,99166.39
2018-06-22T19:08:40.353Z,99161.38
2018-06-22T19:11:09.294Z,99157.32
2018-06-22T19:13:38.163Z,99163.97
2018-06-22T19:16:07.108Z,99167.45
2018-06-22T19:18:36.049Z,99169.84
2018-06-22T19:21:06.100Z,99174.37
2018-06-22T19:23:34.933Z,99181.94
2018-06-22T19:26:03.938Z,99176.13
2018-06-22T19:28:32.835Z,99185.20
2018-06-22T19:31:01.689Z,99190.95
2018-06-22T19:33:31.798Z,99176.10
2018-06-22T19:36:00.985Z,99170.50
2018-06-22T19:38:30.192Z,99175.64
2018-06-22T19:40:59.183Z,99189.69
2018-06-22T19:43:33.209Z,99193.58
2018-06-22T19:46:07.468Z,99195.66
2018-06-22T19:48:41.565Z,99194.33
2018-06-22T19:51:16.652Z,99201.11
2018-06-22T19:53:56.550Z,99193.99
2018-06-22T19:56:25.987Z,99206.42
2018-06-22T19:58:55.050Z,99193.31
2018-06-22T20:01:26.864Z,99207.13
2018-06-22T20:03:56.101Z,99203.03
2018-06-22T20:06:39.582Z,99210.05
2018-06-22T20:09:10.677Z,99215.93
2018-06-22T20:11:44.569Z,99222.88
2018-06-22T20:14:13.845Z,99224.89
2018-06-22T20:16:57.001Z,99221.07
2018-06-22T20:19:26.654Z,99233.30
2018-06-22T20:22:04.169Z,99230.44
2018-06-22T20:24:39.102Z,99228.20
2018-06-22T20:27:08.329Z,99229.55
2018-06-22T20:32:40.072Z,99237.85
2018-06-22T20:35:13.957Z,99236.57
2018-06-22T20:37:56.617Z,99235.91
2018-06-22T20:40:33.973Z,99238.92
2018-06-22T20:45:12.952Z,99240.78
2018-06-22T20:47:46.621Z,99244.08
2018-06-22T20:50:20.475Z,99251.48
2018-06-22T20:52:49.005Z,99247.78
2018-06-22T20:55:17.458Z,99246.84
2018-06-22T20:57:45.868Z,99252.78
2018-06-22T21:00:14.438Z,99252.32
2018-06-22T21:02:42.930Z,99253.72
2018-06-22T21:05:11.307Z,99251.74
2018-06-22T21:07:39.869Z,99249.89
2018-06-22T21:10:08.368Z,99259.25
2018-06-22T21:12:40.418Z,99256.86
2018-06-22T21:15:05.870Z,99256.94
2018-06-22T21:17:34.383Z,99257.31
2018-06-22T21:20:02.996Z,99260.19
2018-06-22T21:22:31.394Z,99261.48
2018-06-22T21:24:59.898Z,99257.31
2018-06-22T21:27:33.502Z,99258.89
2018-06-22T21:30:07.101Z,99254.17
2018-06-22T21:32:40.919Z,99263.48
2018-06-22T21:35:14.712Z,99262.14
2018-06-22T21:39:55.296Z,99263.08
2018-06-22T21:42:23.599Z,99266.97
2018-06-22T21:44:51.989Z,99268.23
2018-06-22T21:47:20.400Z,99272.57
2018-06-22T21:49:48.752Z,99268.66
2018-06-22T21:52:18.958Z,99264.70
2018-06-22T21:54:47.444Z,99276.83
2018-06-22T21:57:15.895Z,99280.59
2018-06-22T21:59:44.392Z,99276.19
2018-06-22T22:02:12.834Z,99276.86
2018-06-22T22:04:41.220Z,99271.63
2018-06-22T22:07:09.576Z,99275.84
2018-06-22T22:09:42.286Z,99276.01
2018-06-22T22:12:10.782Z,99269.46
2018-06-22T22:14:39.981Z,99274.21
2018-06-22T22:17:08.579Z,99273.22
2018-06-22T22:19:37.576Z,99273.55
2018-06-22T22:22:05.941Z,99270.66
2018-06-22T22:24:34.317Z,99272.23
2018-06-22T22:27:02.828Z,99268.20
2018-06-22T22:29:31.447Z,99269.98
2018-06-22T22:32:00.153Z,99265.52
2018-06-22T22:34:28.751Z,99269.25
2018-06-22T22:36:57.041Z,99265.94
2018-06-22T22:39:25.401Z,99265.15
2018-06-22T22:41:53.883Z,99264.40
2018-06-22T22:44:22.528Z,99267.23
2018-06-22T22:46:51.399Z,99264.59
2018-06-22T22:49:19.976Z,99260.41
2018-06-22T22:51:48.825Z,99262.63
2018-06-22T22:54:17.357Z,99260.41
2018-06-22T22:56:45.737Z,99260.34
2018-06-22T22:59:15.361Z,99259.39
2018-06-22T23:01:49.385Z,99260.51
2018-06-22T23:04:18.028Z,99254.67
2018-06-22T23:06:46.435Z,99254.84
2018-06-22T23:09:14.860Z,99256.16
2018-06-22T23:11:43.280Z,99257.03
2018-06-22T23:14:11.789Z,99252.59
2018-06-22T23:16:40.447Z,99252.84
2018-06-22T23:19:08.828Z,99249.53
2018-06-22T23:21:37.193Z,99250.16
2018-06-22T23:24:05.646Z,99246.56
2018-06-22T23:26:34.303Z,99245.08
2018-06-22T23:29:02.629Z,99241.38
2018-06-22T23:31:31.039Z,99245.95
2018-06-22T23:33:59.904Z,99239.09
2018-06-22T23:36:28.253Z,99239.61
2018-06-22T23:38:56.570Z,99240.58
2018-06-22T23:41:24.912Z,99240.51
2018-06-22T23:43:53.328Z,99238.78
2018-06-22T23:46:21.716Z,99228.91
2018-06-22T23:48:50.684Z,99228.67
2018-06-22T23:51:19.034Z,99230.09
2018-06-22T23:53:47.513Z,99225.62
2018-06-22T23:56:16.308Z,99233.86
2018-06-22T23:58:44.766Z,99232.09
